Weather at Quamichan Lake (Raven Field) Airport

Public forecast

Using degrees Celsius for public forecast. Weather courtesy of forecast.io.

Closest aviation weather report (METAR) to Quamichan Lake (Raven Field) Airport

Closest report is Victoria International Airport, 13.3 nm (24.6 km) SE.

2024/05/26 22:00 (retrieved 18 minutes ago)

CYYJ 262200Z 14011G16KT 20SM FEW016 SCT032 BKN048 13/13 A3010 RMK SC1SC3SC3 SLP195

Closest aviation forecast (TAF) to Quamichan Lake (Raven Field) Airport

Closest forecast is Victoria International Airport, 13.3 nm (24.6 km) SE.

2024/05/26 18:42 (retrieved 4 hours ago)

TAF CYYJ 261740Z 2618/2718 14010KT P6SM SCT015 OVC040 TEMPO 2618/2718 5SM -SHRA BR BKN015 OVC040 BECMG 2702/2704 VRB03KT RMK NXT FCST BY 270000Z